Sebat — 3FWW6 — position and weather

sailwx.info

Track history (hours):
 
Tides and Currents Weather Stations Pressure Air Temp Water Temp Dewpoint Dewpoint Depression Visibility Wind Speed Wind Dir Waves Ship Positions

Sebat

Last reported at 2018-Aug-10 03:38 UTC. Time now 2018-Aug-14 06:59 UTC.
Position N 36°37' E 014°48'.

Length 148 m; draft 7.4 m.

Type: Cargo ship. MMSI: 374881000.

Date/timePositionNaut miles runAvg speedWind from/ knotsBaromVisibWave heightAir tempDewpointWater temp
2018-Aug-10 03:38N 36°37' E 014°48'213.6
2018-Aug-10 03:29N 36°37' E 014°46'613.5
2018-Aug-10 03:00N 36°39' E 014°38'713.2
2018-Aug-10 02:30N 36°41' E 014°30'612.8
2018-Aug-10 02:00N 36°44' E 014°23'712.7
2018-Aug-10 01:28N 36°47' E 014°15'612.7
2018-Aug-10 01:00N 36°49' E 014°09'612.5
2018-Aug-10 00:30N 36°52' E 014°02'612.5
2018-Aug-10 00:00N 36°55' E 013°55'612.5
2018-Aug-09 23:30N 36°58' E 013°48'612.6
2018-Aug-09 23:00N 37°01' E 013°41'612.6
2018-Aug-09 22:30N 37°04' E 013°34'56712.5
2018-Aug-08 01:13N 36°54' E 001°45'713.2
2018-Aug-08 00:40N 36°53' E 001°36'1012.9
2018-Aug-07 23:52N 36°52' E 001°23'513.0
2018-Aug-07 23:30N 36°51' E 001°17'613.0
2018-Aug-07 23:00N 36°50' E 001°09'612.9
2018-Aug-07 22:30N 36°49' E 001°01'1213.3
2018-Aug-07 21:35N 36°47' E 000°46'113.4
2018-Aug-07 21:30N 36°47' E 000°45'713.1
2018-Aug-07 20:57N 36°46' E 000°36'1012.5
2018-Aug-07 20:11N 36°44' E 000°24'312.3
2018-Aug-07 19:55N 36°43' E 000°20'512.1
2018-Aug-07 19:30N 36°42' E 000°14'612.1
2018-Aug-07 19:00N 36°41' E 000°07'612.0
2018-Aug-07 18:30N 36°40' W 000°01'712.2
2018-Aug-07 17:55N 36°39' W 000°10'912.6
2018-Aug-07 17:15N 36°38' W 000°20'312.6
2018-Aug-07 17:00N 36°37' W 000°24'612.7
2018-Aug-07 16:30N 36°36' W 000°32'612.7
2018-Aug-07 16:00N 36°35' W 000°39'612.8
2018-Aug-07 15:30N 36°34' W 000°47'20813.7
2018-Aug-07 00:22N 36°01' W 005°02'714.5
2018-Aug-06 23:53N 35°60' W 005°10'514.2
2018-Aug-06 23:31N 35°59' W 005°16'714.0
2018-Aug-06 23:00N 35°57' W 005°25'1612.9
2018-Aug-06 21:44N 35°54' W 005°45'14112.9
2018-Aug-06 10:46N 36°25' W 008°35'413.3
2018-Aug-06 10:30N 36°26' W 008°40'613.1
2018-Aug-06 10:00N 36°28' W 008°47'713.1
2018-Aug-06 09:30N 36°29' W 008°55'612.7
2018-Aug-06 09:00N 36°31' W 009°03'612.4
2018-Aug-06 08:30N 36°33' W 009°10'612.4
2018-Aug-06 08:00N 36°34' W 009°18'612.2
2018-Aug-06 07:30N 36°39' W 009°23'712.6
2018-Aug-06 06:58N 36°44' W 009°29'612.6
2018-Aug-06 06:30N 36°48' W 009°33'613.0
2018-Aug-06 06:01N 36°54' W 009°35'713.0
2018-Aug-06 05:30N 37°01' W 009°37'713.3
2018-Aug-06 05:00N 37°07' W 009°39'713.3
2018-Aug-06 04:30N 37°14' W 009°40'713.5
2018-Aug-06 04:01N 37°20' W 009°42'713.0
2018-Aug-06 03:30N 37°27' W 009°44'613.0
2018-Aug-06 03:01N 37°33' W 009°46'713.1
2018-Aug-06 02:31N 37°39' W 009°48'713.2
2018-Aug-06 02:00N 37°46' W 009°50'713.2
2018-Aug-06 01:30N 37°52' W 009°52'713.1
2018-Aug-06 01:00N 37°59' W 009°53'713.3
2018-Aug-06 00:31N 38°05' W 009°55'713.2
2018-Aug-06 00:01N 38°12' W 009°57'612.9
2018-Aug-05 23:30N 38°18' W 009°59'613.0
2018-Aug-05 23:00N 38°24' W 010°00'613.0
2018-Aug-05 22:30N 38°31' W 010°02'713.5
2018-Aug-05 22:00N 38°37' W 010°04'713.2
2018-Aug-05 21:31N 38°44' W 010°05'713.2
2018-Aug-05 21:01N 38°50' W 010°05'713.3
2018-Aug-05 20:31N 38°57' W 010°05'612.8
2018-Aug-05 20:01N 39°03' W 010°06'712.9
2018-Aug-05 19:30N 39°10' W 010°06'713.3
2018-Aug-05 19:00N 39°17' W 010°07'713.6
2018-Aug-05 18:30N 39°23' W 010°07'713.4
2018-Aug-05 18:00N 39°30' W 010°07'713.4
2018-Aug-05 17:30N 39°37' W 010°07'713.0
2018-Aug-05 17:00N 39°43' W 010°07'713.0
2018-Aug-05 16:26N 39°51' W 010°07'613.3
2018-Aug-05 16:01N 39°56' W 010°07'713.2
2018-Aug-05 15:31N 40°03' W 010°06'713.2
2018-Aug-05 15:00N 40°10' W 010°06'1313.4
2018-Aug-05 14:00N 40°23' W 010°07'713.5
2018-Aug-05 13:30N 40°30' W 010°07'713.3
2018-Aug-05 13:00N 40°36' W 010°07'713.1
2018-Aug-05 12:30N 40°43' W 010°07'713.4
2018-Aug-05 12:00N 40°50' W 010°07'12313.3
2018-Aug-05 02:44N 42°53' W 010°06'313.0
2018-Aug-05 02:30N 42°56' W 010°06'713.0
2018-Aug-05 02:00N 43°02' W 010°06'56313.1
2018-Aug-03 06:59N 51°59' W 005°53'914.9
2018-Aug-03 06:24N 52°08' W 005°50'615.2
2018-Aug-03 06:00N 52°14' W 005°48'815.2
2018-Aug-03 05:30N 52°21' W 005°46'2614.7
2018-Aug-03 03:45N 52°47' W 005°38'314.1
2018-Aug-03 03:30N 52°50' W 005°38'713.7
2018-Aug-03 03:00N 52°57' W 005°36'1112.7
2018-Aug-03 02:07N 53°08' W 005°33'211.8
2018-Aug-03 01:59N 53°09' W 005°32'811.5
2018-Aug-03 01:18N 53°17' W 005°31'4811.7
2018-Aug-02 21:10N 54°05' W 005°21'213.1
2018-Aug-02 21:00N 54°07' W 005°21'713.2
2018-Aug-02 20:30N 54°14' W 005°19'713.0
2018-Aug-02 20:00N 54°20' W 005°17'612.7
2018-Aug-02 19:30N 54°26' W 005°16'611.9
2018-Aug-02 19:00N 54°32' W 005°16'611.9
2018-Aug-02 18:30N 54°38' W 005°20'711.3
2018-Aug-02 17:54N 54°44' W 005°24'511.3
2018-Aug-02 17:28N 54°49' W 005°28'1611.2
2018-Aug-02 16:01N 55°03' W 005°42'111.5
2018-Aug-02 15:57N 55°03' W 005°42'611.6
2018-Aug-02 15:28N 55°08' W 005°48'612.1
2018-Aug-02 15:00N 55°12' W 005°55'612.9
2018-Aug-02 14:30N 55°17' W 006°01'712.8
2018-Aug-02 13:59N 55°22' W 006°10'612.8
2018-Aug-02 13:30N 55°25' W 006°19'713.2
2018-Aug-02 13:00N 55°30' W 006°27'714.5
2018-Aug-02 12:30N 55°34' W 006°37'714.7
2018-Aug-02 12:00N 55°39' W 006°47'715.0
2018-Aug-02 11:31N 55°45' W 006°56'  
Track history (hours):
 
Tides and Currents Weather Stations Pressure Air Temp Water Temp Dewpoint Dewpoint Depression Visibility Wind Speed Wind Dir Waves Ship Positions

Sebat

Last reported at 2018-Aug-10 03:38 UTC. Time now 2018-Aug-14 06:59 UTC.
Position N 36°37' E 014°48'.

Length 148 m; draft 7.4 m.

Type: Cargo ship. MMSI: 374881000.

Date/timePositionNaut miles runAvg speedWind from/ knotsBaromVisibWave heightAir tempDewpointWater temp
2018-Aug-10 03:38N 36°37' E 014°48'213.6
2018-Aug-10 03:29N 36°37' E 014°46'613.5
2018-Aug-10 03:00N 36°39' E 014°38'713.2
2018-Aug-10 02:30N 36°41' E 014°30'612.8
2018-Aug-10 02:00N 36°44' E 014°23'712.7
2018-Aug-10 01:28N 36°47' E 014°15'612.7
2018-Aug-10 01:00N 36°49' E 014°09'612.5
2018-Aug-10 00:30N 36°52' E 014°02'612.5
2018-Aug-10 00:00N 36°55' E 013°55'612.5
2018-Aug-09 23:30N 36°58' E 013°48'612.6
2018-Aug-09 23:00N 37°01' E 013°41'612.6
2018-Aug-09 22:30N 37°04' E 013°34'56712.5
2018-Aug-08 01:13N 36°54' E 001°45'713.2
2018-Aug-08 00:40N 36°53' E 001°36'1012.9
2018-Aug-07 23:52N 36°52' E 001°23'513.0
2018-Aug-07 23:30N 36°51' E 001°17'613.0
2018-Aug-07 23:00N 36°50' E 001°09'612.9
2018-Aug-07 22:30N 36°49' E 001°01'1213.3
2018-Aug-07 21:35N 36°47' E 000°46'113.4
2018-Aug-07 21:30N 36°47' E 000°45'713.1
2018-Aug-07 20:57N 36°46' E 000°36'1012.5
2018-Aug-07 20:11N 36°44' E 000°24'312.3
2018-Aug-07 19:55N 36°43' E 000°20'512.1
2018-Aug-07 19:30N 36°42' E 000°14'612.1
2018-Aug-07 19:00N 36°41' E 000°07'612.0
2018-Aug-07 18:30N 36°40' W 000°01'712.2
2018-Aug-07 17:55N 36°39' W 000°10'912.6
2018-Aug-07 17:15N 36°38' W 000°20'312.6
2018-Aug-07 17:00N 36°37' W 000°24'612.7
2018-Aug-07 16:30N 36°36' W 000°32'612.7
2018-Aug-07 16:00N 36°35' W 000°39'612.8
2018-Aug-07 15:30N 36°34' W 000°47'20813.7
2018-Aug-07 00:22N 36°01' W 005°02'714.5
2018-Aug-06 23:53N 35°60' W 005°10'514.2
2018-Aug-06 23:31N 35°59' W 005°16'714.0
2018-Aug-06 23:00N 35°57' W 005°25'1612.9
2018-Aug-06 21:44N 35°54' W 005°45'14112.9
2018-Aug-06 10:46N 36°25' W 008°35'413.3
2018-Aug-06 10:30N 36°26' W 008°40'613.1
2018-Aug-06 10:00N 36°28' W 008°47'713.1
2018-Aug-06 09:30N 36°29' W 008°55'612.7
2018-Aug-06 09:00N 36°31' W 009°03'612.4
2018-Aug-06 08:30N 36°33' W 009°10'612.4
2018-Aug-06 08:00N 36°34' W 009°18'612.2
2018-Aug-06 07:30N 36°39' W 009°23'712.6
2018-Aug-06 06:58N 36°44' W 009°29'612.6
2018-Aug-06 06:30N 36°48' W 009°33'613.0
2018-Aug-06 06:01N 36°54' W 009°35'713.0
2018-Aug-06 05:30N 37°01' W 009°37'713.3
2018-Aug-06 05:00N 37°07' W 009°39'713.3
2018-Aug-06 04:30N 37°14' W 009°40'713.5
2018-Aug-06 04:01N 37°20' W 009°42'713.0
2018-Aug-06 03:30N 37°27' W 009°44'613.0
2018-Aug-06 03:01N 37°33' W 009°46'713.1
2018-Aug-06 02:31N 37°39' W 009°48'713.2
2018-Aug-06 02:00N 37°46' W 009°50'713.2
2018-Aug-06 01:30N 37°52' W 009°52'713.1
2018-Aug-06 01:00N 37°59' W 009°53'713.3
2018-Aug-06 00:31N 38°05' W 009°55'713.2
2018-Aug-06 00:01N 38°12' W 009°57'612.9
2018-Aug-05 23:30N 38°18' W 009°59'613.0
2018-Aug-05 23:00N 38°24' W 010°00'613.0
2018-Aug-05 22:30N 38°31' W 010°02'713.5
2018-Aug-05 22:00N 38°37' W 010°04'713.2
2018-Aug-05 21:31N 38°44' W 010°05'713.2
2018-Aug-05 21:01N 38°50' W 010°05'713.3
2018-Aug-05 20:31N 38°57' W 010°05'612.8
2018-Aug-05 20:01N 39°03' W 010°06'712.9
2018-Aug-05 19:30N 39°10' W 010°06'713.3
2018-Aug-05 19:00N 39°17' W 010°07'713.6
2018-Aug-05 18:30N 39°23' W 010°07'713.4
2018-Aug-05 18:00N 39°30' W 010°07'713.4
2018-Aug-05 17:30N 39°37' W 010°07'713.0
2018-Aug-05 17:00N 39°43' W 010°07'713.0
2018-Aug-05 16:26N 39°51' W 010°07'613.3
2018-Aug-05 16:01N 39°56' W 010°07'713.2
2018-Aug-05 15:31N 40°03' W 010°06'713.2
2018-Aug-05 15:00N 40°10' W 010°06'1313.4
2018-Aug-05 14:00N 40°23' W 010°07'713.5
2018-Aug-05 13:30N 40°30' W 010°07'713.3
2018-Aug-05 13:00N 40°36' W 010°07'713.1
2018-Aug-05 12:30N 40°43' W 010°07'713.4
2018-Aug-05 12:00N 40°50' W 010°07'12313.3
2018-Aug-05 02:44N 42°53' W 010°06'313.0
2018-Aug-05 02:30N 42°56' W 010°06'713.0
2018-Aug-05 02:00N 43°02' W 010°06'56313.1
2018-Aug-03 06:59N 51°59' W 005°53'914.9
2018-Aug-03 06:24N 52°08' W 005°50'615.2
2018-Aug-03 06:00N 52°14' W 005°48'815.2
2018-Aug-03 05:30N 52°21' W 005°46'2614.7
2018-Aug-03 03:45N 52°47' W 005°38'314.1
2018-Aug-03 03:30N 52°50' W 005°38'713.7
2018-Aug-03 03:00N 52°57' W 005°36'1112.7
2018-Aug-03 02:07N 53°08' W 005°33'211.8
2018-Aug-03 01:59N 53°09' W 005°32'811.5
2018-Aug-03 01:18N 53°17' W 005°31'4811.7
2018-Aug-02 21:10N 54°05' W 005°21'213.1
2018-Aug-02 21:00N 54°07' W 005°21'713.2
2018-Aug-02 20:30N 54°14' W 005°19'713.0
2018-Aug-02 20:00N 54°20' W 005°17'612.7
2018-Aug-02 19:30N 54°26' W 005°16'611.9
2018-Aug-02 19:00N 54°32' W 005°16'611.9
2018-Aug-02 18:30N 54°38' W 005°20'711.3
2018-Aug-02 17:54N 54°44' W 005°24'511.3
2018-Aug-02 17:28N 54°49' W 005°28'1611.2
2018-Aug-02 16:01N 55°03' W 005°42'111.5
2018-Aug-02 15:57N 55°03' W 005°42'611.6
2018-Aug-02 15:28N 55°08' W 005°48'612.1
2018-Aug-02 15:00N 55°12' W 005°55'612.9
2018-Aug-02 14:30N 55°17' W 006°01'712.8
2018-Aug-02 13:59N 55°22' W 006°10'612.8
2018-Aug-02 13:30N 55°25' W 006°19'713.2
2018-Aug-02 13:00N 55°30' W 006°27'714.5
2018-Aug-02 12:30N 55°34' W 006°37'714.7
2018-Aug-02 12:00N 55°39' W 006°47'715.0
2018-Aug-02 11:31N 55°45' W 006°56'  

Dump ship's entire track history